Time,TemperatureF,DewpointF,PressureIn,WindDirection,WindDirectionDegrees,WindSpeedMPH,WindSpeedGustMPH,Humidity,HourlyPrecipIn,Conditions,Clouds,dailyrainin,SoftwareType,DateUTC
2013-02-09 00:12:00,38.1,24.0,29.61,South,174,0.0,3.0,58,0.00,,,0.00,weatherlink.com 1.10,2013-02-09 07:12:00,
2013-02-09 00:28:00,37.8,24.0,29.61,SE,141,0.0,1.0,59,0.00,,,0.00,weatherlink.com 1.10,2013-02-09 07:28:00,
2013-02-09 00:43:00,38.3,25.0,29.60,SSW,208,0.0,3.0,60,0.00,,,0.00,weatherlink.com 1.10,2013-02-09 07:43:00,
2013-02-09 00:58:00,38.9,26.0,29.60,SW,230,1.0,4.0,60,0.00,,,0.00,weatherlink.com 1.10,2013-02-09 07:58:00,
2013-02-09 01:15:00,39.3,26.0,29.60,SSE,155,0.0,3.0,59,0.00,,,0.00,weatherlink.com 1.10,2013-02-09 08:15:00,
2013-02-09 01:28:00,39.4,26.0,29.59,SE,135,1.0,2.0,60,0.00,,,0.00,weatherlink.com 1.10,2013-02-09 08:28:00,
2013-02-09 01:43:00,39.5,27.0,29.59,ESE,114,2.0,3.0,61,0.00,,,0.00,weatherlink.com 1.10,2013-02-09 08:43:00,
2013-02-09 01:58:00,39.7,27.0,29.58,East,91,3.0,5.0,60,0.00,,,0.00,weatherlink.com 1.10,2013-02-09 08:58:00,
2013-02-09 02:13:00,40.6,28.0,29.58,East,99,3.0,10.0,61,0.00,,,0.00,weatherlink.com 1.10,2013-02-09 09:13:00,
2013-02-09 02:28:00,40.2,30.0,29.58,ESE,111,4.0,15.0,68,0.00,,,0.00,weatherlink.com 1.10,2013-02-09 09:28:00,
2013-02-09 02:58:00,37.1,32.0,29.62,WSW,244,0.0,10.0,83,0.01,,,0.01,weatherlink.com 1.10,2013-02-09 09:58:00,
2013-02-09 03:13:00,35.7,32.0,29.60,WNW,302,3.0,5.0,86,0.02,,,0.02,weatherlink.com 1.10,2013-02-09 10:13:00,
2013-02-09 03:28:00,34.9,32.0,29.59,NNE,17,4.0,5.0,89,0.02,,,0.02,weatherlink.com 1.10,2013-02-09 10:28:00,
2013-02-09 03:43:00,34.6,32.0,29.59,SE,135,2.0,4.0,91,0.02,,,0.02,weatherlink.com 1.10,2013-02-09 10:43:00,
2013-02-09 03:58:00,34.2,32.0,29.60,SE,136,0.0,4.0,91,0.01,,,0.02,weatherlink.com 1.10,2013-02-09 10:58:00,
2013-02-09 04:13:00,33.6,32.0,29.59,SSE,154,0.0,5.0,92,0.00,,,0.02,weatherlink.com 1.10,2013-02-09 11:13:00,
2013-02-09 04:28:00,33.1,31.0,29.59,SE,130,0.0,2.0,92,0.00,,,0.02,weatherlink.com 1.10,2013-02-09 11:28:00,
2013-02-09 04:43:00,32.7,31.0,29.60,SW,217,1.0,3.0,93,0.00,,,0.02,weatherlink.com 1.10,2013-02-09 11:43:00,
2013-02-09 05:00:00,32.6,31.0,29.60,ENE,78,4.0,6.0,94,0.00,,,0.02,weatherlink.com 1.10,2013-02-09 12:00:00,
2013-02-09 05:13:00,32.9,31.0,29.61,East,86,3.0,7.0,93,0.00,,,0.02,weatherlink.com 1.10,2013-02-09 12:13:00,
2013-02-09 05:28:00,33.0,31.0,29.62,ESE,116,1.0,8.0,93,0.00,,,0.02,weatherlink.com 1.10,2013-02-09 12:28:00,
2013-02-09 05:43:00,32.9,31.0,29.61,SE,136,0.0,3.0,93,0.00,,,0.02,weatherlink.com 1.10,2013-02-09 12:43:00,
2013-02-09 05:58:00,32.8,31.0,29.61,SE,134,2.0,3.0,92,0.00,,,0.02,weatherlink.com 1.10,2013-02-09 12:58:00,
2013-02-09 06:13:00,32.5,30.0,29.61,South,178,0.0,3.0,91,0.00,,,0.02,weatherlink.com 1.10,2013-02-09 13:13:00,
2013-02-09 06:28:00,32.4,30.0,29.62,NW,306,2.0,4.0,90,0.00,,,0.02,weatherlink.com 1.10,2013-02-09 13:28:00,
2013-02-09 06:43:00,32.5,30.0,29.62,NE,44,4.0,8.0,90,0.00,,,0.02,weatherlink.com 1.10,2013-02-09 13:43:00,
2013-02-09 06:58:00,33.1,31.0,29.62,SW,217,1.0,4.0,90,0.00,,,0.02,weatherlink.com 1.10,2013-02-09 13:58:00,
2013-02-09 07:13:00,32.9,30.0,29.63,SSW,192,0.0,2.0,89,0.00,,,0.02,weatherlink.com 1.10,2013-02-09 14:13:00,
2013-02-09 07:28:00,32.8,30.0,29.63,East,96,1.0,3.0,90,0.00,,,0.02,weatherlink.com 1.10,2013-02-09 14:28:00,
2013-02-09 07:43:00,33.2,30.0,29.64,SSE,152,3.0,5.0,87,0.00,,,0.02,weatherlink.com 1.10,2013-02-09 14:43:00,
2013-02-09 07:59:00,34.0,31.0,29.64,South,180,3.0,8.0,87,0.00,,,0.02,weatherlink.com 1.10,2013-02-09 14:59:00,
2013-02-09 08:14:00,34.3,30.0,29.65,ESE,110,5.0,13.0,85,0.00,,,0.02,weatherlink.com 1.10,2013-02-09 15:14:00,
2013-02-09 08:29:00,34.7,31.0,29.66,East,98,2.0,6.0,86,0.00,,,0.02,weatherlink.com 1.10,2013-02-09 15:29:00,
2013-02-09 08:45:00,35.3,31.0,29.67,SE,132,2.0,5.0,83,0.00,,,0.02,weatherlink.com 1.10,2013-02-09 15:45:00,
2013-02-09 08:59:00,34.7,31.0,29.68,NNE,29,2.0,2.0,86,0.00,,,0.02,weatherlink.com 1.10,2013-02-09 15:59:00,
2013-02-09 09:14:00,33.8,31.0,29.69,NW,315,1.0,2.0,90,0.00,,,0.02,weatherlink.com 1.10,2013-02-09 16:14:00,
2013-02-09 09:29:00,33.6,31.0,29.69,NW,315,1.0,2.0,91,0.00,,,0.02,weatherlink.com 1.10,2013-02-09 16:29:00,
2013-02-09 09:44:00,33.6,32.0,29.70,NW,315,0.0,2.0,92,0.00,,,0.02,weatherlink.com 1.10,2013-02-09 16:44:00,
2013-02-09 09:59:00,33.9,32.0,29.71,ESE,106,2.0,4.0,93,0.01,,,0.03,weatherlink.com 1.10,2013-02-09 16:59:00,
2013-02-09 10:14:00,34.4,33.0,29.71,ESE,111,1.0,2.0,93,0.01,,,0.03,weatherlink.com 1.10,2013-02-09 17:14:00,
2013-02-09 10:29:00,34.9,33.0,29.72,SE,129,2.0,3.0,92,0.01,,,0.03,weatherlink.com 1.10,2013-02-09 17:29:00,
2013-02-09 10:44:00,36.0,33.0,29.72,ENE,60,0.0,2.0,90,0.01,,,0.03,weatherlink.com 1.10,2013-02-09 17:44:00,
2013-02-09 10:59:00,36.7,35.0,29.72,WNW,303,2.0,3.0,92,0.00,,,0.03,weatherlink.com 1.10,2013-02-09 17:59:00,
2013-02-09 11:14:00,37.4,34.0,29.73,West,281,3.0,5.0,88,0.00,,,0.03,weatherlink.com 1.10,2013-02-09 18:14:00,
2013-02-09 11:29:00,37.9,35.0,29.73,West,272,2.0,6.0,90,0.00,,,0.03,weatherlink.com 1.10,2013-02-09 18:29:00,
2013-02-09 11:44:00,39.3,37.0,29.73,WNW,297,1.0,4.0,91,0.00,,,0.03,weatherlink.com 1.10,2013-02-09 18:44:00,
2013-02-09 12:00:00,40.0,36.0,29.73,NW,321,2.0,4.0,84,0.00,,,0.03,weatherlink.com 1.10,2013-02-09 19:00:00,
2013-02-09 12:15:00,41.0,34.0,29.73,NE,56,4.0,6.0,77,0.00,,,0.03,weatherlink.com 1.10,2013-02-09 19:15:00,
2013-02-09 12:30:00,40.7,32.0,29.73,ENE,75,3.0,6.0,72,0.00,,,0.03,weatherlink.com 1.10,2013-02-09 19:30:00,
2013-02-09 12:45:00,41.8,34.0,29.74,SSW,202,0.0,4.0,73,0.00,,,0.03,weatherlink.com 1.10,2013-02-09 19:45:00,
2013-02-09 13:00:00,42.0,32.0,29.74,East,96,1.0,3.0,68,0.00,,,0.03,weatherlink.com 1.10,2013-02-09 20:00:00,
2013-02-09 13:15:00,41.5,31.0,29.74,NNW,339,1.0,4.0,66,0.00,,,0.03,weatherlink.com 1.10,2013-02-09 20:15:00,
2013-02-09 13:30:00,41.2,33.0,29.73,East,86,5.0,5.0,72,0.00,,,0.03,weatherlink.com 1.10,2013-02-09 20:30:00,
2013-02-09 13:45:00,41.1,33.0,29.74,NNE,15,4.0,8.0,72,0.00,,,0.03,weatherlink.com 1.10,2013-02-09 20:45:00,
2013-02-09 14:00:00,40.7,32.0,29.74,NE,46,2.0,5.0,70,0.00,,,0.03,weatherlink.com 1.10,2013-02-09 21:00:00,
2013-02-09 14:15:00,40.9,31.0,29.74,ENE,77,2.0,4.0,69,0.00,,,0.03,weatherlink.com 1.10,2013-02-09 21:15:00,
2013-02-09 14:30:00,41.5,29.0,29.74,ENE,68,2.0,5.0,62,0.00,,,0.03,weatherlink.com 1.10,2013-02-09 21:30:00,
2013-02-09 14:45:00,42.3,31.0,29.75,South,189,2.0,7.0,64,0.00,,,0.03,weatherlink.com 1.10,2013-02-09 21:45:00,
2013-02-09 15:00:00,42.5,32.0,29.75,SSE,168,3.0,8.0,67,0.00,,,0.03,weatherlink.com 1.10,2013-02-09 22:00:00,
2013-02-09 15:15:00,42.8,33.0,29.75,East,91,2.0,5.0,68,0.00,,,0.03,weatherlink.com 1.10,2013-02-09 22:15:00,
2013-02-09 15:30:00,43.6,30.0,29.76,SSW,202,2.0,7.0,58,0.00,,,0.03,weatherlink.com 1.10,2013-02-09 22:30:00,
2013-02-09 15:45:00,43.7,30.0,29.76,SSW,205,6.0,9.0,58,0.00,,,0.03,weatherlink.com 1.10,2013-02-09 22:45:00,
2013-02-09 16:00:00,43.5,28.0,29.77,West,281,3.0,7.0,55,0.00,,,0.03,weatherlink.com 1.10,2013-02-09 23:00:00,
2013-02-09 16:15:00,44.5,31.0,29.77,SW,220,5.0,8.0,60,0.00,,,0.03,weatherlink.com 1.10,2013-02-09 23:15:00,
2013-02-09 16:30:00,45.2,30.0,29.78,West,269,2.0,6.0,55,0.00,,,0.03,weatherlink.com 1.10,2013-02-09 23:30:00,
2013-02-09 16:45:00,44.9,31.0,29.79,WNW,296,3.0,7.0,58,0.00,,,0.03,weatherlink.com 1.10,2013-02-09 23:45:00,
2013-02-09 17:00:00,44.6,28.0,29.79,SW,226,1.0,7.0,53,0.00,,,0.03,weatherlink.com 1.10,2013-02-10 00:00:00,
2013-02-09 17:15:00,43.3,27.0,29.79,SW,227,8.0,10.0,52,0.00,,,0.03,weatherlink.com 1.10,2013-02-10 00:15:00,
2013-02-09 17:30:00,42.5,28.0,29.80,West,269,6.0,9.0,56,0.00,,,0.03,weatherlink.com 1.10,2013-02-10 00:30:00,
2013-02-09 17:45:00,41.5,30.0,29.81,East,101,1.0,5.0,63,0.00,,,0.03,weatherlink.com 1.10,2013-02-10 00:45:00,
2013-02-09 18:00:00,40.6,30.0,29.81,East,98,2.0,5.0,66,0.00,,,0.03,weatherlink.com 1.10,2013-02-10 01:00:00,
2013-02-09 18:15:00,39.8,30.0,29.82,East,81,3.0,5.0,68,0.00,,,0.03,weatherlink.com 1.10,2013-02-10 01:15:00,
2013-02-09 18:30:00,39.1,31.0,29.82,ENE,77,2.0,6.0,72,0.00,,,0.03,weatherlink.com 1.10,2013-02-10 01:30:00,
2013-02-09 18:45:00,38.6,30.0,29.83,ESE,105,1.0,8.0,70,0.00,,,0.03,weatherlink.com 1.10,2013-02-10 01:45:00,
2013-02-09 19:00:00,38.5,31.0,29.84,WNW,296,2.0,5.0,73,0.00,,,0.03,weatherlink.com 1.10,2013-02-10 02:00:00,
2013-02-09 19:15:00,37.8,30.0,29.84,ENE,69,2.0,2.0,74,0.00,,,0.03,weatherlink.com 1.10,2013-02-10 02:15:00,
2013-02-09 19:30:00,38.0,31.0,29.85,ENE,69,1.0,5.0,77,0.00,,,0.03,weatherlink.com 1.10,2013-02-10 02:30:00,
2013-02-09 19:46:00,38.5,31.0,29.85,North,349,3.0,8.0,74,0.00,,,0.03,weatherlink.com 1.10,2013-02-10 02:46:00,
2013-02-09 20:00:00,38.5,31.0,29.85,NE,43,2.0,5.0,73,0.00,,,0.03,weatherlink.com 1.10,2013-02-10 03:00:00,
2013-02-09 20:15:00,38.3,31.0,29.85,ESE,104,4.0,4.0,75,0.00,,,0.03,weatherlink.com 1.10,2013-02-10 03:15:00,
2013-02-09 20:30:00,38.1,32.0,29.86,ENE,64,5.0,7.0,77,0.00,,,0.03,weatherlink.com 1.10,2013-02-10 03:30:00,
2013-02-09 20:45:00,38.1,31.0,29.86,ESE,103,2.0,4.0,76,0.00,,,0.03,weatherlink.com 1.10,2013-02-10 03:45:00,
2013-02-09 21:00:00,38.1,31.0,29.86,NE,45,1.0,3.0,75,0.00,,,0.03,weatherlink.com 1.10,2013-02-10 04:00:00,
2013-02-09 21:15:00,38.2,31.0,29.87,ENE,73,4.0,6.0,74,0.00,,,0.03,weatherlink.com 1.10,2013-02-10 04:15:00,
2013-02-09 21:31:00,38.2,30.0,29.87,NNE,19,3.0,3.0,73,0.00,,,0.03,weatherlink.com 1.10,2013-02-10 04:31:00,
2013-02-09 21:46:00,38.0,31.0,29.88,ESE,108,1.0,6.0,75,0.00,,,0.03,weatherlink.com 1.10,2013-02-10 04:46:00,
2013-02-09 22:01:00,37.7,31.0,29.89,ENE,72,3.0,4.0,76,0.00,,,0.03,weatherlink.com 1.10,2013-02-10 05:01:00,
2013-02-09 22:16:00,37.4,30.0,29.89,East,86,0.0,3.0,76,0.00,,,0.03,weatherlink.com 1.10,2013-02-10 05:16:00,
2013-02-09 22:31:00,36.7,30.0,29.89,ENE,76,2.0,3.0,77,0.00,,,0.03,weatherlink.com 1.10,2013-02-10 05:31:00,
2013-02-09 22:46:00,36.2,30.0,29.89,East,94,2.0,4.0,79,0.00,,,0.03,weatherlink.com 1.10,2013-02-10 05:46:00,
2013-02-09 23:01:00,36.1,31.0,29.89,ENE,63,0.0,2.0,80,0.00,,,0.03,weatherlink.com 1.10,2013-02-10 06:01:00,
2013-02-09 23:16:00,35.4,30.0,29.89,ENE,63,0.0,2.0,81,0.00,,,0.03,weatherlink.com 1.10,2013-02-10 06:16:00,
2013-02-09 23:32:00,34.0,30.0,29.90,NW,312,1.0,2.0,84,0.00,,,0.03,weatherlink.com 1.10,2013-02-10 06:32:00,
2013-02-09 23:46:00,33.4,29.0,29.91,North,355,0.0,2.0,85,0.00,,,0.03,weatherlink.com 1.10,2013-02-10 06:46:00,